Time;durP1;ratioP1;P1;durP2;ratioP2;P2;SDS_P1;SDS_P2;PMS_P1;PMS_P2;Temp;Humidity;BMP_temperature;BMP_pressure;BME280_temperature;BME280_humidity;BME280_pressure;Samples;Min_cycle;Max_cycle;Signal;HPM_P1;HPM_P2
2021/01/09 00:00:18;;;;;;;9.35;6.53;;;;;;;1.65;74.51;101119.50;685775;28;22031;-64
2021/01/09 00:00:39;;;;;;;8.70;6.13;;;;;;;1.65;74.49;101116.00;684098;28;70391;-63
2021/01/09 00:01:00;;;;;;;9.85;6.40;;;;;;;1.66;74.60;101123.84;686362;28;775;-63
2021/01/09 00:01:21;;;;;;;7.85;5.82;;;;;;;1.62;74.67;101114.41;684558;28;46373;-63
2021/01/09 00:01:43;;;;;;;8.23;5.88;;;;;;;1.65;74.72;101116.84;685770;28;15181;-63
2021/01/09 00:02:04;;;;;;;8.25;5.78;;;;;;;1.66;74.72;101115.88;687811;28;47103;-63
2021/01/09 00:02:26;;;;;;;7.90;6.07;;;;;;;1.66;74.63;101117.69;686559;28;23517;-63
2021/01/09 00:02:48;;;;;;;7.70;5.60;;;;;;;1.67;74.57;101122.91;685813;28;21502;-63
2021/01/09 00:03:10;;;;;;;7.32;5.55;;;;;;;1.67;74.69;101116.75;684850;28;46369;-63
2021/01/09 00:03:31;;;;;;;7.00;6.10;;;;;;;1.68;74.62;101118.44;685285;28;46383;-63
2021/01/09 00:03:52;;;;;;;7.85;6.35;;;;;;;1.68;74.56;101119.28;686187;28;22414;-63
2021/01/09 00:04:14;;;;;;;8.05;5.65;;;;;;;1.67;74.57;101120.25;685106;28;46365;-63
2021/01/09 00:04:35;;;;;;;7.00;6.10;;;;;;;1.67;74.42;101117.59;686947;28;23496;-63
2021/01/09 00:04:56;;;;;;;9.10;6.05;;;;;;;1.66;74.62;101118.53;685379;28;46220;-63
2021/01/09 00:05:18;;;;;;;8.43;6.20;;;;;;;1.66;74.67;101118.53;686022;28;21196;-63
2021/01/09 00:05:39;;;;;;;7.47;5.93;;;;;;;1.67;74.56;101116.75;685216;28;22384;-62
2021/01/09 00:06:01;;;;;;;7.93;6.07;;;;;;;1.66;74.58;101115.03;684614;28;46312;-63
2021/01/09 00:06:22;;;;;;;8.15;6.13;;;;;;;1.65;74.59;101116.84;686051;28;22549;-63
2021/01/09 00:06:45;;;;;;;6.60;5.57;;;;;;;1.67;74.52;101124.72;684657;28;46347;-63
2021/01/09 00:07:06;;;;;;;7.40;6.20;;;;;;;1.66;74.62;101120.34;685335;28;70306;-62
2021/01/09 00:07:30;;;;;;;8.55;6.22;;;;;;;1.66;74.53;101121.19;685845;28;22380;-63
2021/01/09 00:07:52;;;;;;;7.95;6.15;;;;;;;1.64;74.56;101115.13;683079;28;92335;-63
2021/01/09 00:08:13;;;;;;;8.38;6.32;;;;;;;1.64;74.56;101115.13;684271;28;44369;-62
2021/01/09 00:08:34;;;;;;;9.73;6.10;;;;;;;1.65;74.61;101116.84;685768;28;21317;-63
2021/01/09 00:08:55;;;;;;;6.53;5.60;;;;;;;1.64;74.74;101117.81;685814;28;23429;-63
2021/01/09 00:09:17;;;;;;;7.00;6.03;;;;;;;1.65;74.64;101116.00;685964;28;23459;-63
2021/01/09 00:09:39;;;;;;;9.48;6.40;;;;;;;1.65;74.70;101118.69;685130;28;45216;-62
2021/01/09 00:10:02;;;;;;;8.07;6.00;;;;;;;1.66;74.66;101115.03;685121;28;46337;-62
2021/01/09 00:10:23;;;;;;;8.07;6.18;;;;;;;1.64;74.69;101112.47;686041;28;69462;-62
2021/01/09 00:10:47;;;;;;;7.05;5.57;;;;;;;1.66;74.69;101115.03;685971;28;21691;-62
2021/01/09 00:11:08;;;;;;;8.02;6.10;;;;;;;1.65;74.62;101111.53;683364;28;90144;-61
2021/01/09 00:11:30;;;;;;;8.45;6.20;;;;;;;1.66;74.70;101123.03;685731;28;23353;-61
2021/01/09 00:11:51;;;;;;;6.80;6.03;;;;;;;1.67;74.71;101120.25;684827;28;47732;-61
2021/01/09 00:12:13;;;;;;;6.88;5.88;;;;;;;1.66;74.63;101115.88;687197;28;23420;-61
2021/01/09 00:12:35;;;;;;;8.18;6.05;;;;;;;1.65;74.63;101116.84;685088;28;46333;-62
2021/01/09 00:12:57;;;;;;;8.88;6.65;;;;;;;1.67;74.56;101119.41;682298;28;46056;-62
2021/01/09 00:13:18;;;;;;;8.00;6.22;;;;;;;1.66;74.58;101115.03;682414;28;46337;-62
2021/01/09 00:13:39;;;;;;;7.13;5.97;;;;;;;1.67;74.78;101124.72;683250;28;21503;-61
2021/01/09 00:14:01;;;;;;;6.78;5.90;;;;;;;1.68;74.58;101116.63;682937;28;22414;-60
2021/01/09 00:14:23;;;;;;;8.48;6.28;;;;;;;1.69;74.84;101115.66;682410;28;46471;-61
2021/01/09 00:14:44;;;;;;;9.40;6.47;;;;;;;1.70;74.74;101119.19;683732;28;44727;-63
2021/01/09 00:15:09;;;;;;;9.15;6.32;;;;;;;1.69;74.80;101117.47;683385;28;1671;-63
2021/01/09 00:15:31;;;;;;;8.73;6.23;;;;;;;1.64;74.58;101112.47;680815;28;91879;-65
2021/01/09 00:15:52;;;;;;;9.35;6.15;;;;;;;1.69;74.63;101128.97;682364;28;46322;-63
2021/01/09 00:16:14;;;;;;;8.25;6.30;;;;;;;1.68;74.68;101113.97;682591;28;22688;-64
2021/01/09 00:16:35;;;;;;;7.47;6.18;;;;;;;1.69;74.71;101128.13;682885;28;46328;-65
2021/01/09 00:16:56;;;;;;;8.80;6.32;;;;;;;1.65;74.71;101113.34;684362;28;25350;-64
2021/01/09 00:17:17;;;;;;;9.07;6.50;;;;;;;1.67;74.56;101127.41;683860;28;23518;-62
2021/01/09 00:17:39;;;;;;;7.93;6.20;;;;;;;1.66;74.65;101121.19;682378;28;45130;-62
2021/01/09 00:18:01;;;;;;;9.30;6.80;;;;;;;1.63;74.73;101113.47;683645;28;21420;-62
2021/01/09 00:18:22;;;;;;;8.65;6.40;;;;;;;1.66;74.79;101123.84;682479;28;39154;-61
2021/01/09 00:18:43;;;;;;;9.85;6.40;;;;;;;1.66;74.82;101126.53;683367;28;21671;-60
2021/01/09 00:19:05;;;;;;;9.15;6.47;;;;;;;1.67;74.81;101120.25;683222;28;21570;-62
2021/01/09 00:19:26;;;;;;;8.77;6.28;;;;;;;1.68;74.69;101121.97;682244;28;44357;-60
2021/01/09 00:19:48;;;;;;;7.43;5.97;;;;;;;1.67;74.72;101120.25;684913;28;17184;-62
2021/01/09 00:20:11;;;;;;;8.15;6.32;;;;;;;1.67;74.72;101117.59;682988;28;22426;-65
2021/01/09 00:20:32;;;;;;;8.45;6.35;;;;;;;1.66;74.61;101115.03;680828;28;90846;-64
2021/01/09 00:20:54;;;;;;;8.07;6.22;;;;;;;1.64;74.91;101111.63;683393;28;21527;-63
2021/01/09 00:21:16;;;;;;;8.18;6.47;;;;;;;1.68;74.87;101121.97;683898;28;1121;-63
2021/01/09 00:21:38;;;;;;;9.18;6.60;;;;;;;1.68;74.87;101127.28;683467;28;23561;-64
2021/01/09 00:22:03;;;;;;;7.47;6.05;;;;;;;1.68;74.92;101121.09;683116;28;23492;-63
2021/01/09 00:22:25;;;;;;;8.13;6.00;;;;;;;1.69;74.97;101122.81;678993;28;138944;-63
2021/01/09 00:22:46;;;;;;;10.55;6.72;;;;;;;1.69;74.74;101120.97;683701;28;3355;-63
2021/01/09 00:23:08;;;;;;;8.93;6.47;;;;;;;1.69;74.75;101123.63;682630;28;45403;-63
2021/01/09 00:23:29;;;;;;;7.68;5.90;;;;;;;1.69;74.77;101120.13;683326;28;22407;-63
2021/01/09 00:23:50;;;;;;;7.20;5.85;;;;;;;1.70;74.75;101122.69;683020;28;22844;-63
2021/01/09 00:24:11;;;;;;;8.98;6.55;;;;;;;1.69;74.67;101122.81;682251;28;46362;-62
2021/01/09 00:24:34;;;;;;;7.57;6.18;;;;;;;1.66;74.72;101120.34;684396;28;21577;-63
2021/01/09 00:24:57;;;;;;;8.30;6.25;;;;;;;1.69;74.75;101125.47;681298;28;69294;-65
2021/01/09 00:25:18;;;;;;;9.85;6.57;;;;;;;1.68;74.90;101121.97;682017;28;46439;-65
2021/01/09 00:25:39;;;;;;;8.90;6.13;;;;;;;1.69;74.80;101126.31;682143;28;46398;-65
2021/01/09 00:26:01;;;;;;;8.93;6.50;;;;;;;1.68;74.84;101121.97;682555;28;23538;-64
2021/01/09 00:26:23;;;;;;;7.65;6.47;;;;;;;1.69;74.74;101122.81;681905;28;46349;-63
2021/01/09 00:26:44;;;;;;;7.47;6.35;;;;;;;1.68;74.68;101119.28;682720;28;23575;-65
2021/01/09 00:27:09;;;;;;;9.32;6.47;;;;;;;1.68;74.69;101124.63;683427;28;44986;-62
2021/01/09 00:27:30;;;;;;;7.63;6.18;;;;;;;1.61;74.70;101112.69;679909;28;108029;-63
2021/01/09 00:27:52;;;;;;;9.13;6.30;;;;;;;1.66;74.73;101117.69;682954;28;23578;-62
2021/01/09 00:28:14;;;;;;;8.77;6.68;;;;;;;1.66;74.51;101121.19;683217;28;23524;-62
2021/01/09 00:28:35;;;;;;;8.20;6.47;;;;;;;1.67;74.86;101127.41;682204;28;45257;-62
2021/01/09 00:28:56;;;;;;;8.30;6.63;;;;;;;1.67;74.84;101117.59;682578;28;44375;-61
2021/01/09 00:29:18;;;;;;;8.18;6.38;;;;;;;1.67;74.92;101127.41;682990;28;22412;-62
2021/01/09 00:29:40;;;;;;;8.77;6.43;;;;;;;1.67;74.88;101122.06;684218;28;37155;-63
2021/01/09 00:30:03;;;;;;;8.45;6.28;;;;;;;1.67;74.85;101119.41;683892;28;942;-63
2021/01/09 00:30:24;;;;;;;8.02;6.32;;;;;;;1.67;74.83;101120.25;683321;28;23078;-63
2021/01/09 00:30:46;;;;;;;9.25;6.30;;;;;;;1.66;74.91;101118.53;683173;28;14265;-63
2021/01/09 00:31:07;;;;;;;8.38;6.18;;;;;;;1.67;74.78;101125.56;682464;28;46455;-63
2021/01/09 00:31:29;;;;;;;8.00;6.00;;;;;;;1.66;74.87;101123.03;683660;28;8786;-63
2021/01/09 00:31:50;;;;;;;7.60;6.13;;;;;;;1.64;74.87;101119.63;682987;28;21865;-63
2021/01/09 00:32:13;;;;;;;9.02;6.82;;;;;;;1.63;74.80;101118.78;683575;28;38644;-62
2021/01/09 00:32:34;;;;;;;8.40;6.30;;;;;;;1.65;74.88;101124.84;681453;28;65480;-65
2021/01/09 00:32:55;;;;;;;9.13;6.68;;;;;;;1.64;74.77;101108.97;682528;28;15582;-63
2021/01/09 00:33:16;;;;;;;9.82;6.70;;;;;;;1.67;74.50;101122.06;683098;28;12586;-65
2021/01/09 00:33:38;;;;;;;8.60;6.10;;;;;;;1.68;74.79;101118.44;682665;28;22278;-66
2021/01/09 00:34:00;;;;;;;8.18;6.25;;;;;;;1.69;74.81;101120.13;681943;28;46321;-64
2021/01/09 00:34:21;;;;;;;9.20;6.65;;;;;;;1.68;74.71;101126.41;682005;28;44362;-64
2021/01/09 00:34:42;;;;;;;8.65;5.93;;;;;;;1.68;74.87;101121.09;683361;28;21536;-62
2021/01/09 00:35:04;;;;;;;8.55;6.35;;;;;;;1.68;74.89;101124.63;682891;28;21555;-63
2021/01/09 00:35:26;;;;;;;9.00;6.50;;;;;;;1.69;74.70;101122.81;682436;28;44412;-63
2021/01/09 00:35:47;;;;;;;9.25;6.32;;;;;;;1.69;74.70;101120.13;682277;28;46136;-63
2021/01/09 00:36:09;;;;;;;8.73;6.43;;;;;;;1.70;74.69;101124.50;682995;28;21544;-63
2021/01/09 00:36:30;;;;;;;8.13;6.50;;;;;;;1.68;74.84;101126.41;682471;28;45296;-62
2021/01/09 00:36:51;;;;;;;8.02;6.22;;;;;;;1.68;74.73;101124.63;682819;28;22402;-62
2021/01/09 00:37:13;;;;;;;9.43;6.78;;;;;;;1.68;74.74;101118.44;684053;28;23442;-63
2021/01/09 00:37:34;;;;;;;10.38;6.93;;;;;;;1.69;74.80;101131.63;681982;28;44377;-63
2021/01/09 00:37:55;;;;;;;8.90;6.40;;;;;;;1.70;74.85;101125.34;682979;28;22120;-63
2021/01/09 00:38:17;;;;;;;9.20;6.55;;;;;;;1.70;74.62;101125.34;682201;28;47274;-63
2021/01/09 00:38:38;;;;;;;8.70;6.55;;;;;;;1.71;74.69;101129.72;682941;28;22470;-63
2021/01/09 00:39:00;;;;;;;7.55;6.43;;;;;;;1.71;74.82;101124.41;682870;28;22386;-63
2021/01/09 00:39:21;;;;;;;7.50;6.35;;;;;;;1.70;74.84;101120.03;682333;28;46341;-63
2021/01/09 00:39:45;;;;;;;8.38;6.20;;;;;;;1.68;74.71;101116.63;685041;28;941;-63
2021/01/09 00:40:08;;;;;;;8.80;6.47;;;;;;;1.70;74.69;101120.03;679862;28;116139;-63
2021/01/09 00:40:30;;;;;;;8.57;6.75;;;;;;;1.72;74.68;101127.91;681808;28;66781;-63
2021/01/09 00:40:51;;;;;;;8.65;6.45;;;;;;;1.72;74.73;101123.41;682984;28;22292;-63
2021/01/09 00:41:13;;;;;;;9.23;6.40;;;;;;;1.72;74.66;101127.91;682236;28;44264;-64
2021/01/09 00:41:34;;;;;;;9.35;6.47;;;;;;;1.71;74.69;101123.53;683046;28;22414;-64
2021/01/09 00:42:03;;;;;;;8.32;6.38;;;;;;;1.72;74.61;101130.56;683214;28;19381;-63
2021/01/09 00:42:25;;;;;;;8.85;6.55;;;;;;;1.72;74.66;101134.06;679247;28;136491;-61
2021/01/09 00:42:47;;;;;;;7.97;6.40;;;;;;;1.74;74.61;101118.84;682936;28;22382;-63
2021/01/09 00:43:09;;;;;;;8.93;6.30;;;;;;;1.73;74.48;101127.78;681521;28;70480;-62
2021/01/09 00:43:30;;;;;;;8.68;6.25;;;;;;;1.73;74.70;101125.13;683332;28;23489;-63
2021/01/09 00:43:52;;;;;;;8.13;5.88;;;;;;;1.72;74.89;101117.25;682997;28;21524;-63
2021/01/09 00:44:13;;;;;;;8.60;6.10;;;;;;;1.73;74.68;101125.13;682454;28;38362;-62
2021/01/09 00:44:34;;;;;;;8.70;5.90;;;;;;;1.73;74.59;101129.63;684438;28;23445;-62
2021/01/09 00:44:55;;;;;;;7.60;6.18;;;;;;;1.72;74.69;101123.41;683123;28;23415;-63
2021/01/09 00:45:17;;;;;;;8.35;6.47;;;;;;;1.72;74.59;101123.41;682023;28;46408;-63
2021/01/09 00:45:38;;;;;;;7.38;6.15;;;;;;;1.71;74.54;101121.75;682951;28;22250;-63
2021/01/09 00:45:59;;;;;;;7.85;6.30;;;;;;;1.73;74.59;101130.47;682192;28;46340;-63
2021/01/09 00:46:21;;;;;;;9.07;6.68;;;;;;;1.73;74.51;101126.97;683043;28;19026;-63
2021/01/09 00:46:42;;;;;;;8.82;6.28;;;;;;;1.72;74.53;101125.25;683212;28;22390;-63
2021/01/09 00:47:04;;;;;;;8.25;6.15;;;;;;;1.72;74.42;101122.59;683695;28;46385;-65
2021/01/09 00:47:29;;;;;;;9.85;6.72;;;;;;;1.71;74.57;101126.19;682149;28;46244;-65
2021/01/09 00:47:50;;;;;;;8.43;6.20;;;;;;;1.71;74.62;101127.06;679759;28;115996;-65
2021/01/09 00:48:11;;;;;;;8.98;6.47;;;;;;;1.70;74.67;101121.84;682995;28;37401;-64
2021/01/09 00:48:33;;;;;;;8.25;6.35;;;;;;;1.71;74.64;101121.75;683460;28;23448;-65
2021/01/09 00:48:54;;;;;;;8.77;6.70;;;;;;;1.71;74.71;101123.53;682385;28;45026;-65
2021/01/09 00:49:15;;;;;;;9.25;6.85;;;;;;;1.71;74.71;101126.19;683178;28;22380;-64
2021/01/09 00:49:37;;;;;;;9.10;6.30;;;;;;;1.72;74.74;101125.25;683847;28;23140;-64
2021/01/09 00:49:59;;;;;;;11.07;6.63;;;;;;;1.70;74.66;101121.84;682149;28;46335;-63
2021/01/09 00:50:20;;;;;;;9.65;6.35;;;;;;;1.71;74.63;101126.19;684833;28;23439;-64
2021/01/09 00:50:41;;;;;;;8.15;6.20;;;;;;;1.70;74.73;101128.03;682987;28;43710;-64
2021/01/09 00:51:02;;;;;;;7.93;6.20;;;;;;;1.71;74.78;101126.19;683373;28;21553;-65
2021/01/09 00:51:24;;;;;;;7.70;5.82;;;;;;;1.71;74.81;101134.19;683482;28;22545;-64
2021/01/09 00:51:46;;;;;;;7.70;6.03;;;;;;;1.72;74.87;101128.75;682133;28;46273;-64
2021/01/09 00:52:07;;;;;;;8.35;6.50;;;;;;;1.67;74.82;101120.25;684598;28;13150;-64
2021/01/09 00:52:28;;;;;;;8.15;6.63;;;;;;;1.68;74.79;101121.97;682518;28;45306;-64
2021/01/09 00:52:50;;;;;;;7.45;6.45;;;;;;;1.73;74.73;101129.63;683298;28;16749;-64
2021/01/09 00:53:11;;;;;;;8.23;6.53;;;;;;;1.73;74.86;101130.47;682384;28;46337;-64
2021/01/09 00:53:32;;;;;;;9.18;6.38;;;;;;;1.72;74.75;101136.75;683065;28;24428;-64
2021/01/09 00:53:53;;;;;;;8.85;6.47;;;;;;;1.71;74.82;101129.72;683450;28;23352;-64
2021/01/09 00:54:15;;;;;;;8.50;6.35;;;;;;;1.73;74.84;101132.28;683663;28;11184;-63
2021/01/09 00:54:37;;;;;;;10.45;6.85;;;;;;;1.71;74.81;101128.84;683453;28;42672;-65
2021/01/09 00:54:58;;;;;;;8.65;6.38;;;;;;;1.73;74.72;101134.94;682000;28;46279;-66
2021/01/09 00:55:21;;;;;;;8.10;6.38;;;;;;;1.72;74.76;101125.25;683078;28;22480;-65
2021/01/09 00:55:42;;;;;;;9.38;6.47;;;;;;;1.68;74.71;101124.63;681179;28;69444;-65
2021/01/09 00:56:03;;;;;;;9.00;6.63;;;;;;;1.71;74.60;101129.72;682583;28;22410;-65
2021/01/09 00:56:25;;;;;;;8.27;6.45;;;;;;;1.73;74.66;101132.28;683688;28;13780;-65
2021/01/09 00:56:52;;;;;;;9.93;6.60;;;;;;;1.72;74.72;101130.56;683681;28;36240;-65
2021/01/09 00:57:13;;;;;;;9.35;6.50;;;;;;;1.67;74.62;101125.56;680269;28;138051;-63
2021/01/09 00:57:34;;;;;;;9.32;6.60;;;;;;;1.69;74.61;101130.78;683149;28;21545;-64
2021/01/09 00:57:56;;;;;;;8.35;6.20;;;;;;;1.72;74.68;101130.56;684437;28;1893;-64
2021/01/09 00:58:17;;;;;;;7.50;5.95;;;;;;;1.68;74.63;101127.28;682451;28;46306;-64
2021/01/09 00:58:38;;;;;;;8.32;6.53;;;;;;;1.71;74.71;101140.38;683107;28;22515;-64
2021/01/09 00:58:59;;;;;;;8.55;6.50;;;;;;;1.72;74.56;101139.41;684340;28;4516;-64
2021/01/09 00:59:23;;;;;;;7.85;6.50;;;;;;;1.71;74.63;101134.19;684252;28;1166;-64
2021/01/09 00:59:48;;;;;;;10.70;7.22;;;;;;;1.66;74.68;101129.19;683322;28;72862;-63
2021/01/09 01:00:10;;;;;;;8.95;6.90;;;;;;;1.70;74.56;101133.34;679817;28;115971;-63
2021/01/09 01:00:32;;;;;;;8.65;6.55;;;;;;;1.73;74.62;101132.28;682664;28;35547;-63
2021/01/09 01:00:53;;;;;;;7.57;6.18;;;;;;;1.68;74.67;101127.28;682306;28;44379;-63
2021/01/09 01:01:15;;;;;;;7.60;6.00;;;;;;;1.72;74.56;101138.56;681886;28;45277;-63
2021/01/09 01:01:37;;;;;;;7.72;6.22;;;;;;;1.71;74.57;101134.19;683802;28;1228;-63
2021/01/09 01:02:03;;;;;;;7.78;6.35;;;;;;;1.71;74.57;101136.84;683112;28;23754;-63
2021/01/09 01:02:25;;;;;;;8.13;6.70;;;;;;;1.71;74.52;101142.16;678878;28;137888;-63
2021/01/09 01:02:46;;;;;;;8.35;6.53;;;;;;;1.71;74.68;101140.38;682197;28;46244;-63
2021/01/09 01:03:08;;;;;;;9.07;6.28;;;;;;;1.71;74.59;101143.03;683486;28;941;-64
2021/01/09 01:03:29;;;;;;;8.73;6.78;;;;;;;1.67;74.56;101141.56;683286;28;21973;-63
2021/01/09 01:03:51;;;;;;;8.32;6.38;;;;;;;1.66;74.50;101128.34;683236;28;22421;-64
2021/01/09 01:04:12;;;;;;;8.02;6.43;;;;;;;1.70;74.58;101138.66;683429;28;14934;-64
2021/01/09 01:04:33;;;;;;;8.68;6.47;;;;;;;1.71;74.48;101143.03;683431;28;32502;-62
2021/01/09 01:04:55;;;;;;;9.05;6.75;;;;;;;1.71;74.53;101144.84;683405;28;23505;-62
2021/01/09 01:05:16;;;;;;;8.50;6.50;;;;;;;1.67;74.71;101132.72;683478;28;23420;-62
2021/01/09 01:05:38;;;;;;;9.13;6.68;;;;;;;1.71;74.60;101139.50;682563;28;45534;-63
2021/01/09 01:05:59;;;;;;;9.00;6.53;;;;;;;1.70;74.63;101144.00;684702;28;21081;-62
2021/01/09 01:06:23;;;;;;;9.75;7.20;;;;;;;1.70;74.62;101140.50;682916;28;22396;-63
2021/01/09 01:06:46;;;;;;;9.35;6.55;;;;;;;1.66;74.61;101133.66;680577;28;111200;-63
2021/01/09 01:07:08;;;;;;;9.00;6.40;;;;;;;1.71;74.60;101142.16;683058;28;45171;-63
2021/01/09 01:07:34;;;;;;;8.85;6.45;;;;;;;1.71;74.54;101134.19;682534;28;45078;-63
2021/01/09 01:07:55;;;;;;;10.17;6.87;;;;;;;1.71;74.55;101148.38;678999;28;160904;-64
2021/01/09 01:08:17;;;;;;;8.32;6.32;;;;;;;1.70;74.58;101143.16;682212;28;45674;-63
2021/01/09 01:08:38;;;;;;;7.10;6.03;;;;;;;1.68;74.62;101140.59;683361;28;23435;-65
2021/01/09 01:09:00;;;;;;;7.75;6.10;;;;;;;1.72;74.54;101147.38;682134;28;45232;-63
2021/01/09 01:09:22;;;;;;;8.50;6.32;;;;;;;1.71;74.58;101148.38;683013;28;22385;-64
2021/01/09 01:09:43;;;;;;;7.90;6.13;;;;;;;1.72;74.64;101146.53;683625;28;40324;-66
2021/01/09 01:10:05;;;;;;;8.00;6.10;;;;;;;1.71;74.59;101147.50;682952;28;21647;-64
2021/01/09 01:10:28;;;;;;;8.68;6.50;;;;;;;1.70;74.67;101140.50;681255;28;69632;-63
2021/01/09 01:10:49;;;;;;;8.07;6.40;;;;;;;1.71;74.50;101145.72;682320;28;46162;-65
2021/01/09 01:11:10;;;;;;;9.25;6.35;;;;;;;1.70;74.64;101145.81;682244;28;46333;-64
2021/01/09 01:11:32;;;;;;;11.73;6.88;;;;;;;1.71;74.70;101152.81;682981;28;22221;-66
2021/01/09 01:11:53;;;;;;;10.18;6.28;;;;;;;1.70;74.65;101156.47;683745;28;8977;-64
2021/01/09 01:12:15;;;;;;;9.70;6.32;;;;;;;1.70;74.62;101146.66;683625;28;47208;-61
2021/01/09 01:12:36;;;;;;;10.30;6.75;;;;;;;1.70;74.54;101151.16;683076;28;22451;-63
2021/01/09 01:12:58;;;;;;;9.48;6.63;;;;;;;1.69;74.54;101150.28;684696;28;46245;-63
2021/01/09 01:13:20;;;;;;;10.25;6.97;;;;;;;1.70;74.63;101154.66;684932;28;46644;-64
2021/01/09 01:13:42;;;;;;;9.57;6.95;;;;;;;1.71;74.70;101150.16;684737;28;46406;-63
2021/01/09 01:14:03;;;;;;;9.27;6.95;;;;;;;1.71;74.75;101153.69;686228;28;13764;-63
2021/01/09 01:14:24;;;;;;;9.27;6.95;;;;;;;1.71;74.69;101152.81;684891;28;46381;-63
2021/01/09 01:14:45;;;;;;;9.73;6.97;;;;;;;1.71;74.61;101147.50;687182;28;22436;-65
2021/01/09 01:15:08;;;;;;;9.23;6.43;;;;;;;1.70;74.63;101154.66;685349;28;22462;-65
2021/01/09 01:15:30;;;;;;;8.15;6.43;;;;;;;1.71;74.56;101152.81;685355;28;68959;-66
2021/01/09 01:15:51;;;;;;;9.18;6.70;;;;;;;1.71;74.68;101155.50;686995;28;23346;-64
2021/01/09 01:16:13;;;;;;;9.30;6.95;;;;;;;1.71;74.63;101148.38;685973;28;31114;-66
2021/01/09 01:16:35;;;;;;;8.60;6.47;;;;;;;1.71;74.77;101147.50;684532;28;47353;-66
2021/01/09 01:16:56;;;;;;;8.15;6.10;;;;;;;1.69;74.71;101144.94;685721;28;45279;-66
2021/01/09 01:17:18;;;;;;;8.80;6.45;;;;;;;1.70;74.29;101151.97;687281;28;22266;-65
2021/01/09 01:17:39;;;;;;;8.02;6.25;;;;;;;1.70;74.63;101154.66;685301;28;46383;-65
2021/01/09 01:18:01;;;;;;;8.43;6.45;;;;;;;1.66;74.71;101147.81;685935;28;23506;-65
2021/01/09 01:18:23;;;;;;;7.90;6.47;;;;;;;1.70;74.70;101151.16;685032;28;46310;-64
2021/01/09 01:18:44;;;;;;;8.85;6.60;;;;;;;1.72;74.64;101154.53;685745;28;24370;-63
2021/01/09 01:19:05;;;;;;;8.05;6.50;;;;;;;1.69;74.66;101150.28;685587;28;21547;-64
2021/01/09 01:19:27;;;;;;;8.48;6.40;;;;;;;1.71;74.73;101158.16;685852;28;21545;-65
2021/01/09 01:19:48;;;;;;;9.23;7.03;;;;;;;1.71;74.61;101158.16;686713;28;46351;-65
2021/01/09 01:20:11;;;;;;;8.98;6.78;;;;;;;1.69;74.58;101157.41;685623;28;21566;-65
2021/01/09 01:20:32;;;;;;;8.75;6.30;;;;;;;1.67;74.75;101154.88;684140;28;69121;-66
2021/01/09 01:20:54;;;;;;;8.65;6.28;;;;;;;1.67;74.71;101152.19;685720;28;22415;-66
2021/01/09 01:21:15;;;;;;;7.75;6.20;;;;;;;1.68;74.71;101163.69;685127;28;44970;-66
2021/01/09 01:21:36;;;;;;;8.15;6.13;;;;;;;1.67;74.80;101156.69;686209;28;879;-66
2021/01/09 01:21:58;;;;;;;8.00;6.25;;;;;;;1.67;74.79;101148.69;684935;28;46374;-65
2021/01/09 01:22:24;;;;;;;8.65;6.05;;;;;;;1.64;74.77;101149.75;685330;28;38936;-66
2021/01/09 01:22:45;;;;;;;8.57;5.97;;;;;;;1.68;74.95;101153.91;684861;28;44501;-65
2021/01/09 01:23:07;;;;;;;9.30;6.40;;;;;;;1.68;74.78;101153.03;686254;28;21559;-65
2021/01/09 01:23:28;;;;;;;8.75;6.57;;;;;;;1.67;74.79;101162.84;685255;28;44140;-65
2021/01/09 01:23:50;;;;;;;10.30;6.95;;;;;;;1.66;74.93;101153.16;685877;28;13728;-65
2021/01/09 01:24:11;;;;;;;8.98;6.47;;;;;;;1.68;74.73;101163.69;684860;28;46362;-65
2021/01/09 01:24:33;;;;;;;8.40;6.63;;;;;;;1.66;74.72;101160.31;686921;28;16895;-65
2021/01/09 01:24:55;;;;;;;8.07;6.20;;;;;;;1.68;74.88;101161.03;684621;28;45436;-63
2021/01/09 01:25:16;;;;;;;9.07;6.60;;;;;;;1.67;74.83;101154.88;684458;28;47809;-63
2021/01/09 01:25:38;;;;;;;8.52;6.50;;;;;;;1.68;74.84;101164.56;685613;28;23504;-63
2021/01/09 01:26:00;;;;;;;9.15;6.53;;;;;;;1.67;74.90;101160.19;683965;28;69389;-63
2021/01/09 01:26:21;;;;;;;7.00;6.03;;;;;;;1.69;74.85;101162.75;685500;28;23498;-63
2021/01/09 01:26:43;;;;;;;7.85;6.15;;;;;;;1.66;74.73;101162.97;685885;28;22334;-63
2021/01/09 01:27:04;;;;;;;7.57;6.53;;;;;;;1.67;74.72;101162.84;686294;28;46450;-61
2021/01/09 01:27:25;;;;;;;7.68;6.35;;;;;;;1.67;74.80;101162.84;685630;28;23412;-64
2021/01/09 01:27:47;;;;;;;7.47;5.78;;;;;;;1.66;74.86;101161.13;684424;28;45412;-63
2021/01/09 01:28:09;;;;;;;8.15;6.35;;;;;;;1.66;74.84;101160.31;685642;28;23419;-63
2021/01/09 01:28:30;;;;;;;8.30;6.45;;;;;;;1.64;74.67;101163.06;685059;28;45167;-63
2021/01/09 01:28:51;;;;;;;9.00;6.55;;;;;;;1.67;74.78;101164.66;685158;28;21524;-63
2021/01/09 01:29:13;;;;;;;8.40;6.07;;;;;;;1.67;74.96;101162.00;684471;28;44399;-63
2021/01/09 01:29:34;;;;;;;7.63;6.00;;;;;;;1.67;74.84;101162.00;686640;28;24483;-64
2021/01/09 01:29:56;;;;;;;9.95;6.80;;;;;;;1.67;74.78;101165.50;684522;28;46326;-66
2021/01/09 01:30:18;;;;;;;8.80;6.72;;;;;;;1.65;74.81;101156.78;685417;28;23514;-64
2021/01/09 01:30:39;;;;;;;9.13;6.53;;;;;;;1.65;74.87;101155.94;684914;28;46416;-65
2021/01/09 01:31:01;;;;;;;9.02;6.68;;;;;;;1.66;74.87;101161.13;685792;28;22409;-65
2021/01/09 01:31:23;;;;;;;8.63;6.55;;;;;;;1.66;74.77;101163.81;685290;28;37298;-65
2021/01/09 01:31:44;;;;;;;8.13;6.45;;;;;;;1.66;74.74;101163.81;685143;28;37499;-65
2021/01/09 01:32:05;;;;;;;9.13;6.35;;;;;;;1.66;75.04;101155.81;687035;28;20559;-65
2021/01/09 01:32:27;;;;;;;8.55;6.40;;;;;;;1.67;74.87;101154.03;684873;28;44548;-65
2021/01/09 01:32:48;;;;;;;8.55;6.43;;;;;;;1.66;74.91;101154.97;685484;28;20905;-64
2021/01/09 01:33:09;;;;;;;8.43;6.40;;;;;;;1.66;74.86;101163.81;684547;28;45336;-65
2021/01/09 01:33:31;;;;;;;8.60;6.50;;;;;;;1.66;74.87;101157.63;685521;28;23476;-65
2021/01/09 01:33:52;;;;;;;9.07;6.63;;;;;;;1.67;74.97;101162.00;685580;28;22453;-64
2021/01/09 01:34:14;;;;;;;8.98;6.63;;;;;;;1.68;74.88;101161.03;685224;28;45703;-65
2021/01/09 01:34:35;;;;;;;7.93;6.20;;;;;;;1.68;74.99;101163.69;686347;28;22374;-65
2021/01/09 01:34:56;;;;;;;7.78;6.40;;;;;;;1.69;74.85;101168.06;685634;28;22441;-67
2021/01/09 01:35:17;;;;;;;8.50;6.30;;;;;;;1.68;74.85;101161.91;684526;28;46377;-62
2021/01/09 01:35:39;;;;;;;10.07;6.18;;;;;;;1.68;74.83;101158.38;685603;28;22249;-64
2021/01/09 01:36:00;;;;;;;8.48;6.32;;;;;;;1.69;74.74;101154.75;684763;28;46295;-66
2021/01/09 01:36:22;;;;;;;9.02;6.65;;;;;;;1.68;74.87;101156.56;686153;28;23347;-65
2021/01/09 01:36:47;;;;;;;8.77;6.68;;;;;;;1.69;74.88;101160.91;686305;28;24576;-66
2021/01/09 01:37:09;;;;;;;9.38;6.70;;;;;;;1.70;74.95;101164.47;682607;28;136509;-66
2021/01/09 01:37:30;;;;;;;8.98;6.90;;;;;;;1.69;74.87;101160.09;685309;28;44129;-64
2021/01/09 01:37:52;;;;;;;9.10;6.97;;;;;;;1.66;74.88;101165.63;686138;28;22550;-66
2021/01/09 01:38:13;;;;;;;8.57;6.70;;;;;;;1.69;74.82;101162.75;683805;28;67651;-63
2021/01/09 01:38:35;;;;;;;8.70;6.40;;;;;;;1.69;74.85;101162.75;685375;28;22396;-65
2021/01/09 01:38:56;;;;;;;9.60;6.75;;;;;;;1.68;74.83;101167.22;685969;28;23350;-65
2021/01/09 01:39:18;;;;;;;9.63;6.63;;;;;;;1.69;74.65;101162.75;683939;28;45203;-65
2021/01/09 01:39:39;;;;;;;9.02;6.45;;;;;;;1.69;74.73;101166.25;685770;28;46207;-64
2021/01/09 01:40:01;;;;;;;8.07;6.70;;;;;;;1.68;74.73;101161.91;685628;28;24344;-64
2021/01/09 01:40:24;;;;;;;8.32;6.53;;;;;;;1.67;74.78;101162.84;685986;28;975;-64
2021/01/09 01:40:46;;;;;;;8.07;6.78;;;;;;;1.68;74.94;101161.03;682950;28;93243;-65
2021/01/09 01:41:08;;;;;;;8.20;6.63;;;;;;;1.68;75.02;101163.69;684679;28;43588;-64
2021/01/09 01:41:29;;;;;;;8.20;6.28;;;;;;;1.69;74.89;101163.59;684548;28;46348;-64
2021/01/09 01:41:56;;;;;;;9.20;6.25;;;;;;;1.69;74.86;101163.59;684839;28;61554;-65
2021/01/09 01:42:17;;;;;;;9.27;6.80;;;;;;;1.72;74.92;101162.53;686104;28;46287;-64
2021/01/09 01:42:38;;;;;;;9.82;6.78;;;;;;;1.72;74.88;101167.84;686230;28;1402;-63
2021/01/09 01:43:00;;;;;;;8.73;6.20;;;;;;;1.71;74.91;101158.16;686567;28;1137;-64
2021/01/09 01:43:21;;;;;;;7.55;5.78;;;;;;;1.71;74.96;101163.47;684861;28;44369;-64
2021/01/09 01:43:44;;;;;;;9.25;6.47;;;;;;;1.67;74.93;101162.84;685629;28;23782;-61